Time;durP1;ratioP1;P1;durP2;ratioP2;P2;SDS_P1;SDS_P2;PMS_P1;PMS_P2;Temp;Humidity;BMP_temperature;BMP_pressure;BME280_temperature;BME280_humidity;BME280_pressure;Samples;Min_cycle;Max_cycle;Signal;HPM_P1;HPM_P2
2022/06/20 00:02:12;;;;;;;0.20;0.20;;;21.40;1.00;;;;;;5058988;28;20302;-75
2022/06/20 00:04:37;;;;;;;0.30;0.30;;;21.40;1.00;;;;;;5054489;28;20254;-76
2022/06/20 00:07:03;;;;;;;0.20;0.20;;;21.40;1.00;;;;;;5054125;28;20254;-76
2022/06/20 00:09:29;;;;;;;0.20;0.20;;;21.40;1.00;;;;;;5053185;28;20218;-76
2022/06/20 00:11:55;;;;;;;0.30;0.30;;;21.40;1.00;;;;;;5053878;28;20245;-76
2022/06/20 00:14:21;;;;;;;0.20;0.20;;;21.40;1.00;;;;;;5053738;28;20175;-75
2022/06/20 00:16:47;;;;;;;0.30;0.30;;;21.40;1.00;;;;;;5053799;28;20258;-75
2022/06/20 00:19:15;;;;;;;0.30;0.30;;;21.40;1.00;;;;;;5053221;28;20959;-75
2022/06/20 00:21:41;;;;;;;0.30;0.30;;;21.40;1.00;;;;;;5053601;28;20199;-76
2022/06/20 00:24:07;;;;;;;0.30;0.30;;;21.40;1.00;;;;;;5053699;28;20179;-75
2022/06/20 00:26:35;;;;;;;0.30;0.30;;;21.40;1.00;;;;;;5053754;28;20175;-76
2022/06/20 00:29:02;;;;;;;0.20;0.20;;;21.30;1.00;;;;;;5053219;28;20210;-75
2022/06/20 00:31:28;;;;;;;0.30;0.30;;;21.30;1.00;;;;;;5053636;28;20278;-76
2022/06/20 00:33:53;;;;;;;0.20;0.20;;;21.30;1.00;;;;;;5053276;28;20700;-76
2022/06/20 00:36:19;;;;;;;0.30;0.30;;;21.30;1.00;;;;;;5053339;28;20268;-75
2022/06/20 00:38:47;;;;;;;0.20;0.20;;;21.20;1.00;;;;;;5053628;28;20640;-75
2022/06/20 00:41:24;;;;;;;0.30;0.30;;;21.30;1.00;;;;;;5053441;28;20256;-75
2022/06/20 00:43:52;;;;;;;0.20;0.20;;;21.20;1.00;;;;;;5054161;28;20190;-76
2022/06/20 00:46:30;;;;;;;0.20;0.20;;;21.10;1.00;;;;;;5053581;28;20171;-75
2022/06/20 00:49:09;;;;;;;0.30;0.30;;;21.00;1.00;;;;;;5053121;28;20656;-75
2022/06/20 00:51:58;;;;;;;0.37;0.37;;;21.00;1.00;;;;;;5053643;28;20336;-76
2022/06/20 00:55:02;;;;;;;0.20;0.20;;;21.00;1.00;;;;;;5053616;28;20172;-75
2022/06/20 00:57:35;;;;;;;0.40;0.40;;;21.00;1.00;;;;;;5052901;28;20240;-76
2022/06/20 01:00:12;;;;;;;0.30;0.30;;;20.90;1.00;;;;;;5052967;28;20175;-76
2022/06/20 01:02:43;;;;;;;0.30;0.30;;;20.80;1.00;;;;;;5053272;28;20198;-75
2022/06/20 01:05:18;;;;;;;0.30;0.30;;;20.70;1.00;;;;;;5053459;28;20175;-75
2022/06/20 01:07:55;;;;;;;0.30;0.30;;;20.70;1.00;;;;;;5053294;28;20201;-74
2022/06/20 01:10:21;;;;;;;0.27;0.27;;;20.70;1.00;;;;;;5052887;28;20236;-74
2022/06/20 01:12:53;;;;;;;0.30;0.30;;;20.70;1.00;;;;;;5053127;28;20673;-75
2022/06/20 01:15:22;;;;;;;0.30;0.30;;;20.70;1.00;;;;;;5053211;28;20658;-75
2022/06/20 01:17:49;;;;;;;0.20;0.20;;;20.70;1.00;;;;;;5053054;28;20175;-74
2022/06/20 01:20:17;;;;;;;0.30;0.30;;;20.70;1.00;;;;;;5052579;28;20206;-75
2022/06/20 01:23:14;;;;;;;0.33;0.33;;;20.70;1.00;;;;;;5053099;28;20322;-75
2022/06/20 01:25:45;;;;;;;0.40;0.40;;;20.80;1.00;;;;;;5052922;28;20269;-75
2022/06/20 01:28:15;;;;;;;0.30;0.30;;;20.80;1.00;;;;;;5052904;28;20205;-76
2022/06/20 01:30:44;;;;;;;0.30;0.30;;;20.80;1.00;;;;;;5052135;28;20559;-75
2022/06/20 01:33:14;;;;;;;0.30;0.30;;;20.80;1.00;;;;;;5052855;28;20226;-75
2022/06/20 01:38:27;;;;;;;0.30;0.30;;;20.80;1.00;;;;;;5052679;28;20183;-76
2022/06/20 01:43:37;;;;;;;0.30;0.30;;;20.70;1.00;;;;;;5052531;28;20308;-76
2022/06/20 01:46:09;;;;;;;0.30;0.30;;;20.70;1.00;;;;;;5052422;28;20172;-75
2022/06/20 01:48:38;;;;;;;0.30;0.30;;;20.70;1.00;;;;;;5052518;28;20233;-75
2022/06/20 01:51:08;;;;;;;0.30;0.30;;;20.70;1.00;;;;;;5050838;28;20210;-76
2022/06/20 01:53:34;;;;;;;0.30;0.30;;;20.70;1.00;;;;;;5052164;28;20163;-76
2022/06/20 01:56:01;;;;;;;0.20;0.20;;;20.80;1.00;;;;;;5052466;28;20293;-76
2022/06/20 01:58:38;;;;;;;0.30;0.30;;;20.90;1.00;;;;;;5052443;28;20175;-76
2022/06/20 02:01:04;;;;;;;0.20;0.20;;;20.80;1.00;;;;;;5051803;28;20182;-76
2022/06/20 02:03:34;;;;;;;0.27;0.27;;;20.80;1.00;;;;;;5052160;28;20179;-75
2022/06/20 02:06:01;;;;;;;0.30;0.30;;;20.80;1.00;;;;;;5051928;28;20171;-75
2022/06/20 02:08:27;;;;;;;0.27;0.27;;;20.80;1.00;;;;;;5051933;28;20556;-76
2022/06/20 02:11:16;;;;;;;0.30;0.30;;;20.70;1.00;;;;;;5051757;28;20298;-75
2022/06/20 02:13:46;;;;;;;0.20;0.20;;;20.60;1.00;;;;;;5052037;28;20183;-74
2022/06/20 02:16:16;;;;;;;0.30;0.30;;;20.50;1.00;;;;;;5051991;28;20233;-75
2022/06/20 02:18:44;;;;;;;0.20;0.20;;;20.50;1.00;;;;;;5052118;28;20266;-76
2022/06/20 02:21:18;;;;;;;0.40;0.40;;;20.50;1.00;;;;;;5051159;28;20179;-76
2022/06/20 02:23:49;;;;;;;0.30;0.30;;;20.50;1.00;;;;;;5045109;28;20214;-76
2022/06/20 02:26:17;;;;;;;0.20;0.20;;;20.50;1.00;;;;;;5051176;28;20175;-76
2022/06/20 02:28:54;;;;;;;0.20;0.20;;;20.50;1.00;;;;;;5051291;28;20175;-76
2022/06/20 02:31:19;;;;;;;0.27;0.27;;;20.50;1.00;;;;;;5051789;28;20227;-75
2022/06/20 02:33:46;;;;;;;0.30;0.30;;;20.40;1.00;;;;;;5051746;28;20175;-76
2022/06/20 02:36:12;;;;;;;0.40;0.40;;;20.40;1.00;;;;;;5051840;28;20174;-76
2022/06/20 02:38:38;;;;;;;0.30;0.30;;;20.40;1.00;;;;;;5051477;28;20175;-76
2022/06/20 02:41:04;;;;;;;0.30;0.30;;;20.40;1.00;;;;;;5051037;28;20194;-76
2022/06/20 02:43:47;;;;;;;0.30;0.30;;;20.40;1.00;;;;;;5051406;28;20179;-76
2022/06/20 02:46:17;;;;;;;0.30;0.30;;;20.50;1.00;;;;;;5052042;28;20200;-76
2022/06/20 02:48:47;;;;;;;0.30;0.30;;;20.50;1.00;;;;;;5051448;28;20182;-74
2022/06/20 02:51:17;;;;;;;0.30;0.30;;;20.50;1.00;;;;;;5051020;28;20203;-74
2022/06/20 02:53:55;;;;;;;0.20;0.20;;;20.60;1.00;;;;;;5051364;28;20648;-75
2022/06/20 02:56:21;;;;;;;0.30;0.30;;;20.60;1.00;;;;;;5051577;28;20262;-74
2022/06/20 02:58:53;;;;;;;0.30;0.30;;;20.70;1.00;;;;;;5051045;28;20249;-74
2022/06/20 03:01:41;;;;;;;0.40;0.40;;;20.80;1.00;;;;;;5051747;28;20171;-74
2022/06/20 03:04:08;;;;;;;0.30;0.30;;;20.70;1.00;;;;;;5055294;28;20179;-75
2022/06/20 03:06:42;;;;;;;0.30;0.30;;;20.70;1.00;;;;;;5054942;28;20292;-75
2022/06/20 03:09:14;;;;;;;0.20;0.20;;;20.60;99.90;;;;;;5054513;28;20167;-74
2022/06/20 03:11:40;;;;;;;0.30;0.30;;;20.50;99.90;;;;;;5054769;28;20654;-74
2022/06/20 03:14:10;;;;;;;0.27;0.27;;;20.50;1.00;;;;;;5054983;28;20182;-73
2022/06/20 03:16:38;;;;;;;0.30;0.30;;;20.50;99.90;;;;;;5055073;28;20175;-72
2022/06/20 03:19:03;;;;;;;0.20;0.20;;;20.50;99.90;;;;;;5054127;28;20254;-73
2022/06/20 03:21:36;;;;;;;0.20;0.20;;;20.40;99.90;;;;;;5054887;28;20291;-73
2022/06/20 03:24:03;;;;;;;0.30;0.30;;;20.40;95.10;;;;;;5054677;28;20539;-74
2022/06/20 03:26:29;;;;;;;0.30;0.30;;;20.40;99.90;;;;;;5054776;28;20175;-74
2022/06/20 03:28:55;;;;;;;0.30;0.30;;;20.40;99.90;;;;;;5054057;28;20176;-73
2022/06/20 03:31:21;;;;;;;0.30;0.30;;;20.40;99.90;;;;;;5054399;28;20218;-73
2022/06/20 03:33:47;;;;;;;0.20;0.20;;;20.30;99.90;;;;;;5054741;28;20171;-73
2022/06/20 03:36:27;;;;;;;0.20;0.20;;;20.30;99.90;;;;;;5053926;28;20532;-73
2022/06/20 03:38:54;;;;;;;0.30;0.30;;;20.30;99.90;;;;;;5054146;28;20185;-73
2022/06/20 03:41:23;;;;;;;0.30;0.30;;;20.20;99.90;;;;;;5054374;28;20221;-73
2022/06/20 03:44:18;;;;;;;0.30;0.30;;;20.20;99.90;;;;;;5054108;28;20552;-73
2022/06/20 03:46:53;;;;;;;0.33;0.33;;;20.20;99.90;;;;;;5054363;28;20186;-74
2022/06/20 03:49:31;;;;;;;0.30;0.30;;;20.30;99.90;;;;;;5053771;28;20225;-74
2022/06/20 03:52:29;;;;;;;0.30;0.30;;;20.20;99.90;;;;;;5053634;28;20218;-74
2022/06/20 03:55:00;;;;;;;0.20;0.20;;;20.10;99.90;;;;;;5036124;28;20183;-74
2022/06/20 03:57:35;;;;;;;0.30;0.30;;;20.10;99.90;;;;;;5054411;28;20488;-73
2022/06/20 04:00:11;;;;;;;0.37;0.37;;;20.00;99.90;;;;;;5053563;28;20240;-72
2022/06/20 04:02:54;;;;;;;0.30;0.30;;;20.00;99.90;;;;;;5054278;28;20249;-72
2022/06/20 04:05:46;;;;;;;0.30;0.30;;;20.10;99.90;;;;;;5054495;28;20233;-72
2022/06/20 04:08:21;;;;;;;0.30;0.30;;;20.10;99.90;;;;;;5023640;28;20187;-72
2022/06/20 04:10:59;;;;;;;0.30;0.30;;;20.10;99.90;;;;;;5053747;28;20699;-74
2022/06/20 04:13:40;;;;;;;0.20;0.20;;;20.20;99.90;;;;;;5053510;28;20190;-73
2022/06/20 04:16:14;;;;;;;0.20;0.20;;;20.20;99.90;;;;;;5053851;28;20183;-72
2022/06/20 04:19:08;;;;;;;0.30;0.30;;;20.20;99.90;;;;;;5051809;28;20244;-73
2022/06/20 04:21:45;;;;;;;0.20;0.20;;;20.20;99.90;;;;;;5053595;28;20199;-73
2022/06/20 04:24:28;;;;;;;0.30;0.30;;;20.10;99.90;;;;;;5053974;28;20206;-73
2022/06/20 04:27:10;;;;;;;0.30;0.30;;;20.10;99.90;;;;;;5052913;28;20171;-73
2022/06/20 04:29:41;;;;;;;0.20;0.20;;;20.20;99.90;;;;;;5052293;28;20183;-72
2022/06/20 04:32:22;;;;;;;0.20;0.20;;;20.20;99.90;;;;;;5048473;28;20203;-72
2022/06/20 04:35:15;;;;;;;0.30;0.30;;;20.20;99.90;;;;;;5053930;28;20175;-72
2022/06/20 04:37:56;;;;;;;0.30;0.30;;;20.20;99.90;;;;;;5053730;28;20663;-72
2022/06/20 04:40:32;;;;;;;0.30;0.30;;;20.00;99.90;;;;;;5052712;28;20798;-71
2022/06/20 04:43:01;;;;;;;0.20;0.20;;;20.00;99.90;;;;;;5053545;28;20202;-72
2022/06/20 04:45:32;;;;;;;0.30;0.30;;;20.00;99.90;;;;;;5053674;28;20187;-73
2022/06/20 04:48:00;;;;;;;0.20;0.20;;;20.10;99.90;;;;;;5053719;28;20214;-72
2022/06/20 04:50:28;;;;;;;0.20;0.20;;;20.00;99.90;;;;;;5050991;28;20259;-72
2022/06/20 04:52:59;;;;;;;0.40;0.40;;;20.00;99.90;;;;;;5045124;28;20194;-72
2022/06/20 04:55:27;;;;;;;0.20;0.20;;;20.10;99.90;;;;;;5053639;28;20183;-72
2022/06/20 04:57:55;;;;;;;0.30;0.30;;;20.10;99.90;;;;;;5053566;28;20650;-72
2022/06/20 05:00:28;;;;;;;0.33;0.33;;;20.00;99.90;;;;;;5048939;28;20179;-72
2022/06/20 05:02:56;;;;;;;0.30;0.30;;;20.00;99.90;;;;;;5047617;28;20746;-72
2022/06/20 05:05:26;;;;;;;0.30;0.30;;;20.00;99.90;;;;;;5049813;28;20194;-72
2022/06/20 05:07:53;;;;;;;0.30;0.30;;;20.00;99.90;;;;;;5052712;28;20175;-72
2022/06/20 05:10:24;;;;;;;0.40;0.40;;;20.00;99.90;;;;;;5052217;28;20279;-72
2022/06/20 05:13:25;;;;;;;0.30;0.30;;;20.00;99.90;;;;;;5053202;28;20207;-72
2022/06/20 05:15:53;;;;;;;0.30;0.30;;;20.00;99.90;;;;;;5020560;28;20179;-72
2022/06/20 05:18:28;;;;;;;0.30;0.30;;;19.90;99.90;;;;;;5053145;28;20179;-72
2022/06/20 05:20:58;;;;;;;0.30;0.30;;;19.90;99.90;;;;;;5052308;28;20175;-72
2022/06/20 05:23:32;;;;;;;0.20;0.20;;;20.00;99.90;;;;;;5052543;28;20842;-71
2022/06/20 05:26:00;;;;;;;0.30;0.30;;;20.00;99.90;;;;;;5048835;28;20234;-72
2022/06/20 05:28:27;;;;;;;0.30;0.30;;;20.10;99.90;;;;;;5052178;28;20175;-71
2022/06/20 05:30:53;;;;;;;0.30;0.30;;;20.10;99.90;;;;;;5051427;28;20625;-72
2022/06/20 05:33:24;;;;;;;0.23;0.23;;;20.20;99.90;;;;;;5052271;28;20601;-72
2022/06/20 05:36:01;;;;;;;0.20;0.20;;;20.20;99.90;;;;;;5050950;28;20300;-72
2022/06/20 05:38:29;;;;;;;0.30;0.30;;;20.30;99.90;;;;;;5052385;28;20175;-72
2022/06/20 05:40:57;;;;;;;0.27;0.27;;;20.40;99.90;;;;;;5051976;28;20183;-71
2022/06/20 05:43:24;;;;;;;0.23;0.23;;;20.40;99.90;;;;;;5048164;28;20210;-70
2022/06/20 05:45:55;;;;;;;0.30;0.30;;;20.50;99.90;;;;;;5050203;28;20270;-74
2022/06/20 05:48:30;;;;;;;0.20;0.20;;;20.70;99.90;;;;;;5051797;28;20191;-73
2022/06/20 05:51:01;;;;;;;0.30;0.30;;;20.70;99.90;;;;;;5050066;28;20256;-74
2022/06/20 05:53:32;;;;;;;0.30;0.30;;;20.80;99.90;;;;;;5052086;28;20183;-74
2022/06/20 05:56:02;;;;;;;0.27;0.27;;;20.80;99.90;;;;;;5049300;28;20163;-75
2022/06/20 05:58:31;;;;;;;0.30;0.30;;;20.80;99.90;;;;;;5051187;28;20179;-71
2022/06/20 06:01:02;;;;;;;0.20;0.20;;;20.80;99.90;;;;;;5050584;28;20175;-72
2022/06/20 06:03:38;;;;;;;0.20;0.20;;;20.70;99.90;;;;;;5049171;28;20186;-70
2022/06/20 06:06:10;;;;;;;0.30;0.30;;;20.70;99.90;;;;;;5043129;28;20259;-73
2022/06/20 06:08:55;;;;;;;0.20;0.20;;;20.70;99.90;;;;;;5050950;28;20179;-73
2022/06/20 06:11:23;;;;;;;0.30;0.30;;;20.60;99.90;;;;;;5050012;28;20226;-74
2022/06/20 06:13:55;;;;;;;0.30;0.30;;;20.50;99.90;;;;;;5041632;28;20183;-74
2022/06/20 06:19:27;;;;;;;0.20;0.20;;;20.50;99.90;;;;;;5051024;28;20201;-74
2022/06/20 06:21:55;;;;;;;0.20;0.20;;;20.60;99.90;;;;;;5051128;28;20249;-73
2022/06/20 06:24:24;;;;;;;0.20;0.20;;;20.60;99.90;;;;;;5048466;28;20175;-73
2022/06/20 06:26:54;;;;;;;0.30;0.30;;;20.70;99.90;;;;;;5044367;28;20193;-74
2022/06/20 06:29:24;;;;;;;0.20;0.20;;;20.80;99.90;;;;;;5046567;28;20206;-73
2022/06/20 06:31:55;;;;;;;0.23;0.23;;;20.80;99.90;;;;;;5047369;28;20225;-74
2022/06/20 06:34:45;;;;;;;0.20;0.20;;;20.90;99.90;;;;;;5047340;28;20271;-73
2022/06/20 06:37:18;;;;;;;0.20;0.20;;;21.10;99.90;;;;;;5031842;28;20172;-73
2022/06/20 06:39:53;;;;;;;0.30;0.30;;;21.20;99.90;;;;;;5039913;28;20171;-74
2022/06/20 06:42:18;;;;;;;0.20;0.20;;;21.50;99.90;;;;;;5048943;28;20206;-74
2022/06/20 06:44:48;;;;;;;0.40;0.40;;;21.30;99.90;;;;;;5048851;28;20449;-74
2022/06/20 06:47:26;;;;;;;0.20;0.20;;;21.50;99.90;;;;;;5050379;28;20177;-73
2022/06/20 06:49:59;;;;;;;0.20;0.20;;;21.80;99.90;;;;;;5050295;28;20186;-73
2022/06/20 06:52:44;;;;;;;0.23;0.23;;;21.90;99.90;;;;;;5050877;28;20219;-74
2022/06/20 06:55:36;;;;;;;0.27;0.27;;;21.80;99.90;;;;;;5040340;28;20191;-73
2022/06/20 06:58:20;;;;;;;0.20;0.20;;;21.90;99.90;;;;;;5042783;28;20198;-73
2022/06/20 07:00:51;;;;;;;0.20;0.20;;;22.00;99.90;;;;;;5050228;28;20592;-73
2022/06/20 07:03:28;;;;;;;0.20;0.20;;;22.00;99.90;;;;;;5051367;28;20195;-73
2022/06/20 07:06:08;;;;;;;0.30;0.30;;;22.20;99.90;;;;;;5050970;28;20265;-74
2022/06/20 07:08:41;;;;;;;0.20;0.20;;;22.40;99.90;;;;;;5051417;28;20182;-73
2022/06/20 07:11:20;;;;;;;0.30;0.30;;;22.60;99.90;;;;;;5050475;28;20238;-73
2022/06/20 07:14:01;;;;;;;0.20;0.20;;;22.70;99.90;;;;;;5051280;28;20229;-73
2022/06/20 07:16:32;;;;;;;0.30;0.30;;;22.70;23.80;;;;;;5051072;28;20262;-73
2022/06/20 07:18:59;;;;;;;0.30;0.30;;;22.80;1.00;;;;;;5050471;28;20635;-73
2022/06/20 07:21:27;;;;;;;0.30;0.30;;;22.70;48.90;;;;;;5051215;28;20206;-73
2022/06/20 07:24:04;;;;;;;0.30;0.30;;;22.90;99.90;;;;;;5051275;28;20179;-73
2022/06/20 07:26:37;;;;;;;0.30;0.30;;;22.90;91.30;;;;;;5051022;28;20190;-73
2022/06/20 07:29:11;;;;;;;0.30;0.30;;;23.00;94.70;;;;;;5050563;28;20183;-73
2022/06/20 07:31:51;;;;;;;0.20;0.20;;;23.10;99.90;;;;;;5051129;28;20241;-73
2022/06/20 07:34:31;;;;;;;0.20;0.20;;;23.20;99.90;;;;;;5051138;28;20183;-73
2022/06/20 07:37:10;;;;;;;0.30;0.30;;;23.30;99.90;;;;;;5051080;28;20254;-74
2022/06/20 07:39:51;;;;;;;0.40;0.40;;;23.60;99.90;;;;;;5050743;28;20179;-73
2022/06/20 07:42:21;;;;;;;0.30;0.30;;;23.80;99.90;;;;;;5051001;28;20191;-74
2022/06/20 07:44:52;;;;;;;0.20;0.20;;;24.10;3.50;;;;;;5051227;28;20179;-73
2022/06/20 07:47:31;;;;;;;0.40;0.40;;;24.40;1.00;;;;;;5051023;28;20193;-74
2022/06/20 07:50:03;;;;;;;0.30;0.30;;;24.80;1.00;;;;;;5053824;28;20258;-74
2022/06/20 07:52:42;;;;;;;0.20;0.20;;;25.20;1.00;;;;;;5054613;28;20218;-74
2022/06/20 07:55:12;;;;;;;0.30;0.30;;;25.60;1.00;;;;;;5054537;28;20603;-73
2022/06/20 07:57:44;;;;;;;0.20;0.20;;;25.90;99.90;;;;;;5054590;28;20218;-73
2022/06/20 08:00:19;;;;;;;0.30;0.30;;;26.20;99.90;;;;;;5054279;28;20237;-74
2022/06/20 08:02:51;;;;;;;0.30;0.30;;;26.50;1.00;;;;;;5054515;28;20191;-73
2022/06/20 08:05:24;;;;;;;0.23;0.23;;;26.80;74.40;;;;;;5054959;28;20262;-74
2022/06/20 08:08:17;;;;;;;0.20;0.20;;;27.10;1.00;;;;;;5054507;28;20179;-74
2022/06/20 08:10:50;;;;;;;0.30;0.30;;;27.40;1.00;;;;;;5054252;28;20214;-74
2022/06/20 08:13:24;;;;;;;0.40;0.40;;;27.70;99.90;;;;;;5054146;28;20684;-74
2022/06/20 08:16:02;;;;;;;0.30;0.30;;;28.10;1.00;;;;;;5054656;28;20185;-73
2022/06/20 08:18:29;;;;;;;0.30;0.30;;;28.40;99.90;;;;;;5054651;28;20186;-74
2022/06/20 08:20:59;;;;;;;0.30;0.30;;;28.60;1.00;;;;;;5054153;28;20190;-74
2022/06/20 08:23:34;;;;;;;0.40;0.40;;;28.60;99.90;;;;;;5054166;28;20195;-74
2022/06/20 08:26:06;;;;;;;0.30;0.30;;;28.70;1.00;;;;;;5054030;28;20707;-73
2022/06/20 08:28:43;;;;;;;0.30;0.30;;;28.70;99.90;;;;;;5053936;28;20175;-73
2022/06/20 08:31:30;;;;;;;0.30;0.30;;;28.90;45.90;;;;;;5053118;28;20564;-74
2022/06/20 08:34:16;;;;;;;0.20;0.20;;;29.30;1.00;;;;;;5054030;28;20254;-73
2022/06/20 08:37:01;;;;;;;0.30;0.30;;;29.60;19.70;;;;;;5054012;28;20258;-74
2022/06/20 08:39:34;;;;;;;0.47;0.47;;;29.90;1.00;;;;;;5053959;28;20224;-74
2022/06/20 08:42:33;;;;;;;0.50;0.50;;;29.80;1.00;;;;;;5053883;28;20206;-73
2022/06/20 08:45:36;;;;;;;0.30;0.30;;;29.10;1.00;;;;;;5054151;28;20179;-73
2022/06/20 08:48:35;;;;;;;0.30;0.30;;;28.80;1.00;;;;;;5053833;28;20179;-73
2022/06/20 08:51:13;;;;;;;0.40;0.40;;;29.30;1.00;;;;;;5052898;28;20297;-74
2022/06/20 08:53:53;;;;;;;0.40;0.40;;;29.60;1.00;;;;;;5053723;28;20175;-73
2022/06/20 08:56:42;;;;;;;0.50;0.50;;;30.10;1.00;;;;;;5053621;28;20182;-74
2022/06/20 08:59:16;;;;;;;0.40;0.40;;;30.50;1.00;;;;;;5052619;28;20199;-74
2022/06/20 09:02:14;;;;;;;0.50;0.50;;;30.70;1.00;;;;;;5053153;28;20190;-75
2022/06/20 09:04:59;;;;;;;0.57;0.57;;;30.80;1.00;;;;;;5053118;28;20182;-73
2022/06/20 09:08:03;;;;;;;0.52;0.52;;;31.10;1.00;;;;;;5053220;28;20183;-73
2022/06/20 09:10:46;;;;;;;0.43;0.43;;;31.40;1.00;;;;;;5052240;28;20592;-74
2022/06/20 09:13:32;;;;;;;0.57;0.57;;;31.30;1.00;;;;;;5053014;28;20280;-74
2022/06/20 09:16:20;;;;;;;0.40;0.40;;;31.20;1.00;;;;;;5053574;28;20222;-74
2022/06/20 09:18:49;;;;;;;0.50;0.50;;;31.10;1.00;;;;;;5053252;28;20179;-74
2022/06/20 09:21:33;;;;;;;0.50;0.50;;;31.00;1.00;;;;;;5052406;28;20648;-74
2022/06/20 09:24:22;;;;;;;0.50;0.50;;;31.00;1.00;;;;;;5052913;28;20274;-74
2022/06/20 09:27:04;;;;;;;0.50;0.50;;;30.90;1.00;;;;;;5052865;28;20179;-73
2022/06/20 09:30:08;;;;;;;0.40;0.40;;;31.20;1.00;;;;;;5052390;28;20179;-74
2022/06/20 09:33:16;;;;;;;0.40;0.40;;;31.00;1.00;;;;;;5052444;28;20618;-73
2022/06/20 09:36:14;;;;;;;0.40;0.40;;;30.00;1.00;;;;;;5052504;28;20187;-74
2022/06/20 09:38:48;;;;;;;0.37;0.37;;;30.10;1.00;;;;;;5052257;28;20641;-74
2022/06/20 09:41:58;;;;;;;0.40;0.40;;;30.60;1.00;;;;;;5051966;28;20179;-74
2022/06/20 09:44:36;;;;;;;0.40;0.40;;;31.20;1.00;;;;;;5023843;28;20187;-74
2022/06/20 09:47:11;;;;;;;0.57;0.57;;;31.70;1.00;;;;;;5052493;28;20167;-74
2022/06/20 09:49:59;;;;;;;0.50;0.50;;;32.10;1.00;;;;;;5051800;28;20174;-74
2022/06/20 09:53:03;;;;;;;0.53;0.53;;;32.20;1.00;;;;;;5050761;28;20215;-74
2022/06/20 09:55:43;;;;;;;0.60;0.60;;;32.40;1.00;;;;;;5052233;28;20182;-73
2022/06/20 09:58:22;;;;;;;0.60;0.60;;;32.50;1.00;;;;;;5052090;28;20171;-74
2022/06/20 10:01:18;;;;;;;0.60;0.60;;;32.40;1.00;;;;;;5051747;28;20624;-74
2022/06/20 10:03:49;;;;;;;0.57;0.57;;;32.30;1.00;;;;;;5052146;28;20183;-74
2022/06/20 10:06:45;;;;;;;0.68;0.68;;;31.90;1.00;;;;;;5052072;28;20671;-74
2022/06/20 10:09:17;;;;;;;0.50;0.50;;;31.50;1.00;;;;;;5051497;28;20321;-74
2022/06/20 10:11:55;;;;;;;0.43;0.43;;;31.40;1.00;;;;;;5051060;28;20218;-75
2022/06/20 10:15:02;;;;;;;0.55;0.55;;;31.90;1.00;;;;;;5052156;28;20183;-74
2022/06/20 10:17:57;;;;;;;0.40;0.40;;;32.20;1.00;;;;;;5051771;28;20177;-74
2022/06/20 10:20:47;;;;;;;0.60;0.60;;;32.10;1.00;;;;;;5051442;28;20181;-74
2022/06/20 10:23:27;;;;;;;0.60;0.60;;;31.80;1.00;;;;;;5051640;28;20668;-74
2022/06/20 10:26:27;;;;;;;0.50;0.50;;;31.60;1.00;;;;;;5051737;28;20210;-74
2022/06/20 10:29:20;;;;;;;0.40;0.40;;;31.70;1.00;;;;;;5018774;28;20179;-75
2022/06/20 10:32:05;;;;;;;0.60;0.60;;;31.60;1.00;;;;;;5051512;28;20309;-74
2022/06/20 10:34:42;;;;;;;0.40;0.40;;;31.30;1.00;;;;;;5051753;28;20182;-75
2022/06/20 10:37:27;;;;;;;0.50;0.50;;;31.00;1.00;;;;;;5051725;28;20170;-75
2022/06/20 10:40:08;;;;;;;0.55;0.55;;;31.00;1.00;;;;;;5051009;28;20187;-74
2022/06/20 10:43:06;;;;;;;0.50;0.50;;;30.70;1.00;;;;;;5051271;28;20578;-74
2022/06/20 10:45:46;;;;;;;0.60;0.60;;;30.30;1.00;;;;;;5051505;28;20178;-75
2022/06/20 10:48:12;;;;;;;0.60;0.60;;;30.90;1.00;;;;;;5051484;28;20175;-74
2022/06/20 10:50:48;;;;;;;0.60;0.60;;;31.30;1.00;;;;;;5050680;28;20201;-74
2022/06/20 10:53:32;;;;;;;0.40;0.40;;;31.70;1.00;;;;;;5051185;28;20324;-74
2022/06/20 10:56:17;;;;;;;0.50;0.50;;;31.60;1.00;;;;;;5051361;28;20183;-73
2022/06/20 10:59:11;;;;;;;0.52;0.52;;;31.30;1.00;;;;;;5051197;28;20171;-74
2022/06/20 11:01:48;;;;;;;0.57;0.57;;;30.80;1.00;;;;;;5051283;28;20663;-74
2022/06/20 11:04:20;;;;;;;0.40;0.40;;;30.50;1.00;;;;;;5051567;28;20175;-74
2022/06/20 11:07:04;;;;;;;0.52;0.52;;;30.40;1.00;;;;;;5051297;28;20542;-74
2022/06/20 11:10:01;;;;;;;0.40;0.40;;;30.40;1.00;;;;;;5050828;28;20209;-74
2022/06/20 11:13:01;;;;;;;0.50;0.50;;;30.30;1.00;;;;;;5051196;28;20241;-74
2022/06/20 11:15:45;;;;;;;0.47;0.47;;;30.00;1.00;;;;;;5051221;28;20648;-73
2022/06/20 11:18:37;;;;;;;0.40;0.40;;;29.70;1.00;;;;;;5051063;28;20195;-75
2022/06/20 11:21:17;;;;;;;0.40;0.40;;;29.50;1.00;;;;;;5050591;28;20171;-74
2022/06/20 11:23:48;;;;;;;0.37;0.37;;;29.20;1.00;;;;;;5053876;28;20546;-74
2022/06/20 11:26:48;;;;;;;0.40;0.40;;;29.00;1.00;;;;;;5054793;28;20686;-75
2022/06/20 11:29:21;;;;;;;0.43;0.43;;;28.80;1.00;;;;;;5002339;28;20191;-74
2022/06/20 11:31:55;;;;;;;0.30;0.30;;;28.60;1.00;;;;;;5054899;28;20314;-74
2022/06/20 11:35:15;;;;;;;0.50;0.50;;;28.50;1.00;;;;;;5054815;28;20683;-74
2022/06/20 11:38:14;;;;;;;0.30;0.30;;;28.80;1.00;;;;;;4993314;28;20189;-75
2022/06/20 11:40:40;;;;;;;0.40;0.40;;;29.20;1.00;;;;;;4992662;28;20182;-75
2022/06/20 11:43:33;;;;;;;0.40;0.40;;;29.40;1.00;;;;;;5042703;28;20210;-74
2022/06/20 11:46:17;;;;;;;0.33;0.33;;;29.20;1.00;;;;;;5054615;28;20648;-75
2022/06/20 11:48:53;;;;;;;0.30;0.30;;;28.80;1.00;;;;;;5054783;28;20183;-74
2022/06/20 11:51:28;;;;;;;0.30;0.30;;;29.00;1.00;;;;;;5054340;28;20695;-75
2022/06/20 11:54:10;;;;;;;0.30;0.30;;;29.00;1.00;;;;;;5054632;28;20665;-74
2022/06/20 11:56:48;;;;;;;0.50;0.50;;;29.10;1.00;;;;;;5054686;28;20835;-74
2022/06/20 11:59:20;;;;;;;0.30;0.30;;;28.90;1.00;;;;;;5054071;28;20737;-74
2022/06/20 12:02:15;;;;;;;0.40;0.40;;;28.40;1.00;;;;;;5054427;28;20187;-74
2022/06/20 12:04:56;;;;;;;0.43;0.43;;;28.00;1.00;;;;;;5054385;28;20659;-75
2022/06/20 12:07:35;;;;;;;0.40;0.40;;;28.10;1.00;;;;;;5054363;28;20312;-75
2022/06/20 12:10:12;;;;;;;0.40;0.40;;;28.20;1.00;;;;;;5053646;28;20244;-74
2022/06/20 12:12:52;;;;;;;0.47;0.47;;;28.90;1.00;;;;;;5054433;28;20211;-75
2022/06/20 12:16:04;;;;;;;0.40;0.40;;;29.40;1.00;;;;;;5054362;28;20539;-75
2022/06/20 12:23:18;;;;;;;0.40;0.40;;;29.30;1.00;;;;;;5030370;28;20187;-76
2022/06/20 12:24:19;;;;;;;0.30;0.30;;;30.10;1.00;;;;;;5053906;28;20663;-74
2022/06/20 12:26:45;;;;;;;0.40;0.40;;;30.50;1.00;;;;;;5053908;28;20186;-74
2022/06/20 12:29:17;;;;;;;0.40;0.40;;;31.00;1.00;;;;;;5053640;28;20591;-74
2022/06/20 12:31:48;;;;;;;0.40;0.40;;;31.10;1.00;;;;;;5053625;28;20595;-74
2022/06/20 12:34:45;;;;;;;0.30;0.30;;;30.70;1.00;;;;;;5052975;28;20179;-74
2022/06/20 12:37:39;;;;;;;0.50;0.50;;;30.40;1.00;;;;;;5053605;28;20175;-74
2022/06/20 12:40:08;;;;;;;0.50;0.50;;;30.30;1.00;;;;;;5053320;28;20186;-74
2022/06/20 12:42:55;;;;;;;0.40;0.40;;;30.40;1.00;;;;;;5053678;28;20202;-74
2022/06/20 12:45:49;;;;;;;0.60;0.60;;;30.30;1.00;;;;;;5044903;28;20183;-75
2022/06/20 12:48:50;;;;;;;0.40;0.40;;;30.20;1.00;;;;;;5024767;28;20184;-74
2022/06/20 12:51:34;;;;;;;0.63;0.63;;;29.70;1.00;;;;;;5048294;28;20211;-74
2022/06/20 12:54:44;;;;;;;0.40;0.40;;;30.20;1.00;;;;;;5053445;28;20171;-76
2022/06/20 12:57:49;;;;;;;0.40;0.40;;;30.60;1.00;;;;;;4998922;28;20236;-74
2022/06/20 13:00:45;;;;;;;0.47;0.47;;;30.60;1.00;;;;;;5052394;28;20202;-76
2022/06/20 13:03:38;;;;;;;0.40;0.40;;;30.60;1.00;;;;;;5052821;28;20333;-74
2022/06/20 13:06:24;;;;;;;0.40;0.40;;;29.90;1.00;;;;;;5053370;28;20469;-75
2022/06/20 13:09:11;;;;;;;0.60;0.60;;;29.00;1.00;;;;;;5052831;28;20171;-75
2022/06/20 13:11:53;;;;;;;0.20;0.20;;;28.40;1.00;;;;;;5053082;28;20234;-75
2022/06/20 13:14:33;;;;;;;0.30;0.30;;;27.80;1.00;;;;;;5053193;28;20258;-74
2022/06/20 13:17:19;;;;;;;0.20;0.20;;;27.50;1.00;;;;;;5052959;28;20171;-74
2022/06/20 13:20:22;;;;;;;0.40;0.40;;;27.20;1.00;;;;;;5052956;28;20172;-75
2022/06/20 13:23:09;;;;;;;0.40;0.40;;;27.30;1.00;;;;;;5053434;28;20198;-76
2022/06/20 13:25:48;;;;;;;0.30;0.30;;;27.90;1.00;;;;;;5055591;28;20264;-76
2022/06/20 13:28:29;;;;;;;0.33;0.33;;;28.60;1.00;;;;;;5058634;28;20186;-76
2022/06/20 13:31:12;;;;;;;0.30;0.30;;;28.80;1.00;;;;;;5057290;28;20199;-75
2022/06/20 13:33:53;;;;;;;0.30;0.30;;;28.80;1.00;;;;;;5065962;28;20235;-74
2022/06/20 13:36:33;;;;;;;0.30;0.30;;;28.80;1.00;;;;;;5065614;28;20175;-73
2022/06/20 13:39:05;;;;;;;0.47;0.47;;;28.90;1.00;;;;;;5065179;28;20250;-74
2022/06/20 13:41:44;;;;;;;0.33;0.33;;;28.30;1.00;;;;;;5066927;28;20642;-73
2022/06/20 13:44:18;;;;;;;0.30;0.30;;;27.60;1.00;;;;;;5066234;28;20171;-74
2022/06/20 13:46:50;;;;;;;0.27;0.27;;;27.00;1.00;;;;;;5068023;28;20178;-74
2022/06/20 13:49:33;;;;;;;0.30;0.30;;;26.40;1.00;;;;;;5065822;28;20182;-74
2022/06/20 13:52:02;;;;;;;0.30;0.30;;;26.00;1.00;;;;;;5062100;28;20273;-74
2022/06/20 13:54:41;;;;;;;0.30;0.30;;;25.60;1.00;;;;;;5061915;28;20644;-73
2022/06/20 13:57:32;;;;;;;0.20;0.20;;;25.40;1.00;;;;;;5062856;28;20171;-74
2022/06/20 14:00:18;;;;;;;0.30;0.30;;;25.30;1.00;;;;;;5055671;28;20247;-75